createdAt,value
2019-05-07T03:38:16.122Z,98372.28
2019-05-07T03:43:16.996Z,98370.95
2019-05-07T03:48:20.089Z,98375.35
2019-05-07T03:53:23.053Z,98373.89
2019-05-07T03:58:24.083Z,98373.41
2019-05-07T04:03:25.227Z,98372.06
2019-05-07T04:08:26.099Z,98372.54
2019-05-07T04:13:26.976Z,98373.75
2019-05-07T04:18:28.745Z,98378.99
2019-05-07T04:23:29.688Z,98380.67
2019-05-07T04:28:49.320Z,98381.45
2019-05-07T04:33:53.139Z,98390.52
2019-05-07T04:38:53.380Z,98402.70
2019-05-07T04:43:54.434Z,98405.01
2019-05-07T04:48:55.569Z,98413.13
2019-05-07T04:53:56.436Z,98413.19
2019-05-07T04:58:57.308Z,98419.81
2019-05-07T05:03:58.182Z,98411.34
2019-05-07T05:08:59.127Z,98414.06
2019-05-07T05:14:02.555Z,98419.00
2019-05-07T05:19:02.912Z,98419.75
2019-05-07T05:24:08.723Z,98414.44
2019-05-07T05:29:11.968Z,98414.54
2019-05-07T05:34:13.169Z,98417.70
2019-05-07T05:39:14.455Z,98416.74
2019-05-07T05:44:19.959Z,98417.90
2019-05-07T05:49:22.882Z,98420.67
2019-05-07T05:54:28.247Z,98421.55
2019-05-07T05:59:47.401Z,98429.22
2019-05-07T06:04:42.060Z,98429.53
2019-05-07T06:10:02.613Z,98430.28
2019-05-07T06:15:06.174Z,98439.06
2019-05-07T06:20:13.014Z,98441.09
2019-05-07T06:25:16.413Z,98437.66
2019-05-07T06:30:18.293Z,98442.23
2019-05-07T06:35:19.480Z,98440.09
2019-05-07T06:40:26.639Z,98441.55
2019-05-07T06:45:27.327Z,98439.42
2019-05-07T06:50:28.320Z,98434.91
2019-05-07T06:55:29.197Z,98437.45
2019-05-07T07:00:32.178Z,98434.41
2019-05-07T07:05:35.304Z,98436.45
2019-05-07T07:10:54.908Z,98437.30
2019-05-07T07:15:55.785Z,98442.20
2019-05-07T07:20:56.742Z,98445.58
2019-05-07T07:25:57.633Z,98431.34
2019-05-07T07:31:17.585Z,98431.47
2019-05-07T07:36:22.492Z,98422.88
2019-05-07T07:41:28.133Z,98414.09
2019-05-07T07:46:29.005Z,98413.25
2019-05-07T07:51:40.508Z,98407.61
2019-05-07T07:56:50.164Z,98415.55
2019-05-07T08:01:54.584Z,98408.89
2019-05-07T08:07:04.503Z,98408.03
2019-05-07T08:12:05.689Z,98399.73
2019-05-07T08:17:08.369Z,98401.13
2019-05-07T08:22:09.344Z,98392.16
2019-05-07T08:27:14.776Z,98397.41
2019-05-07T08:32:32.548Z,98397.17
2019-05-07T08:37:33.737Z,98383.47
2019-05-07T08:42:34.600Z,98375.77
2019-05-07T08:47:42.409Z,98389.26
2019-05-07T08:52:42.935Z,98374.14
2019-05-07T08:57:45.900Z,98374.14
2019-05-07T09:02:46.744Z,98377.15
2019-05-07T09:07:47.631Z,98369.91
2019-05-07T09:12:48.505Z,98366.62
2019-05-07T09:17:49.372Z,98366.03
2019-05-07T09:22:51.847Z,98367.04
2019-05-07T09:27:54.390Z,98370.41
2019-05-07T09:33:03.312Z,98368.28
2019-05-07T09:38:04.315Z,98362.43
2019-05-07T09:43:05.214Z,98364.34
2019-05-07T09:48:06.276Z,98352.56
2019-05-07T09:53:07.156Z,98351.91
2019-05-07T09:58:08.028Z,98347.20
2019-05-07T10:03:09.012Z,98342.26
2019-05-07T10:08:12.931Z,98344.05
2019-05-07T10:13:15.695Z,98342.22
2019-05-07T10:18:18.121Z,98342.22
2019-05-07T10:23:19.209Z,98340.39
2019-05-07T10:28:22.740Z,98340.49
2019-05-07T10:33:23.987Z,98330.92
2019-05-07T10:38:24.978Z,98329.30
2019-05-07T10:43:26.031Z,98320.84
2019-05-07T10:48:32.096Z,98321.26
2019-05-07T10:53:33.298Z,98321.12
2019-05-07T10:58:34.303Z,98313.16
2019-05-07T11:03:35.314Z,98305.55
2019-05-07T11:08:36.180Z,98296.70
2019-05-07T11:13:37.058Z,98296.70
2019-05-07T11:18:46.014Z,98290.70
2019-05-07T11:23:46.897Z,98284.63
2019-05-07T11:28:47.783Z,98282.61
2019-05-07T11:33:48.756Z,98283.70
2019-05-07T11:38:49.640Z,98280.69
2019-05-07T11:43:55.788Z,98267.66
2019-05-07T11:49:04.383Z,98264.19
2019-05-07T11:54:09.421Z,98267.75
2019-05-07T11:59:10.415Z,98258.94
2019-05-07T12:04:12.511Z,98249.55
2019-05-07T12:09:13.730Z,98241.66
2019-05-07T12:14:27.341Z,98243.36
2019-05-07T12:19:17.473Z,98239.75
2019-05-07T12:24:18.447Z,98234.34
2019-05-07T12:29:19.312Z,98229.66
2019-05-07T12:34:22.884Z,98213.64
2019-05-07T12:39:24.994Z,98220.45
2019-05-07T12:44:32.037Z,98212.24
2019-05-07T12:49:33.117Z,98204.16
2019-05-07T12:54:38.891Z,98200.17
2019-05-07T12:59:39.752Z,98203.64
2019-05-07T13:04:41.790Z,98193.16
2019-05-07T13:09:43.444Z,98188.08
2019-05-07T13:14:44.295Z,98182.53
2019-05-07T13:19:45.168Z,98184.34
2019-05-07T13:24:46.040Z,98183.89
2019-05-07T13:29:47.427Z,98173.98
2019-05-07T13:34:49.325Z,98177.25
2019-05-07T13:39:52.208Z,98166.38
2019-05-07T13:44:58.248Z,98177.50
2019-05-07T13:56:13.986Z,98160.12
2019-05-07T14:01:16.964Z,98150.73
2019-05-07T14:06:37.681Z,98146.67
2019-05-07T14:11:45.904Z,98144.84
2019-05-07T14:16:47.081Z,98144.13
2019-05-07T14:21:52.309Z,98141.77
2019-05-07T14:26:54.159Z,98130.62
2019-05-07T14:31:57.828Z,98125.93
2019-05-07T14:37:06.688Z,98125.20
2019-05-07T14:42:09.572Z,98118.81
2019-05-07T14:47:12.889Z,98111.05
2019-05-07T14:52:22.634Z,98105.81
2019-05-07T14:57:18.111Z,98097.19
2019-05-07T15:02:19.550Z,98095.84
2019-05-07T15:07:22.563Z,98100.86
2019-05-07T15:12:23.711Z,98105.73
2019-05-07T15:17:26.793Z,98099.95
2019-05-07T15:22:45.837Z,98102.80
2019-05-07T15:27:35.670Z,98096.54
2019-05-07T15:32:36.971Z,98096.47
2019-05-07T15:37:37.940Z,98089.65
2019-05-07T15:42:38.947Z,98085.25
2019-05-07T15:47:44.870Z,98083.33
2019-05-07T15:53:01.779Z,98078.67
2019-05-07T15:58:03.131Z,98071.22
2019-05-07T16:03:07.807Z,98078.48
2019-05-07T16:08:12.336Z,98071.58
2019-05-07T16:13:15.268Z,98076.05
2019-05-07T16:18:32.503Z,98074.18
2019-05-07T16:23:33.032Z,98077.05
2019-05-07T16:28:33.911Z,98072.91
2019-05-07T16:33:34.942Z,98074.28
2019-05-07T16:38:35.781Z,98071.02
2019-05-07T16:43:36.668Z,98072.21
2019-05-07T16:48:37.557Z,98074.22
2019-05-07T16:53:38.551Z,98075.95
2019-05-07T16:58:42.752Z,98068.47
2019-05-07T17:03:45.932Z,98070.91
2019-05-07T17:08:48.712Z,98069.25
2019-05-07T17:13:51.797Z,98071.75
2019-05-07T17:18:52.418Z,98067.85
2019-05-07T17:23:53.407Z,98068.82
2019-05-07T17:28:54.311Z,98067.01
2019-05-07T17:33:55.204Z,98069.28
2019-05-07T17:38:56.062Z,98066.59
2019-05-07T17:43:56.951Z,98074.31
2019-05-07T17:48:57.808Z,98069.17
2019-05-07T17:54:00.261Z,98066.42
2019-05-07T17:59:02.829Z,98068.94
2019-05-07T18:04:04.152Z,98064.36
2019-05-07T18:09:05.370Z,98066.70
2019-05-07T18:14:06.242Z,98067.33
2019-05-07T18:19:07.239Z,98069.97
2019-05-07T18:24:13.766Z,98065.18
2019-05-07T18:29:11.938Z,98065.44
2019-05-07T18:34:13.132Z,98062.59
2019-05-07T18:39:14.376Z,98065.28
2019-05-07T18:44:16.394Z,98066.36
2019-05-07T18:49:17.242Z,98065.35
2019-05-07T18:54:27.950Z,98070.56
2019-05-07T18:59:23.663Z,98068.38
2019-05-07T19:04:24.531Z,98070.67
2019-05-07T19:09:26.149Z,98060.59
2019-05-07T19:14:27.131Z,98073.67
2019-05-07T19:19:28.407Z,98076.05
2019-05-07T19:24:42.281Z,98080.86
2019-05-07T19:29:32.796Z,98077.55
2019-05-07T19:34:33.905Z,98069.23
2019-05-07T19:39:34.779Z,98069.23
2019-05-07T19:44:35.788Z,98074.91
2019-05-07T19:49:36.785Z,98075.91
2019-05-07T19:54:37.780Z,98067.34
2019-05-07T19:59:38.751Z,98072.75
2019-05-07T20:04:39.755Z,98058.58
2019-05-07T20:09:42.479Z,98058.58
2019-05-07T20:14:43.759Z,98058.58
